PAFA/FAI METAR and TAF weather

Enter ICAO airport designator
Station Type Date Time Source
PAFA METAR 2022/12/05 14:53 UTC NOAA

PAFA 051453Z 19003KT 10SM CLR M16/M19 A3005 RMK AO2 SLP191 T11611189 51021 $


Station Type Date Time Source
PAFA Decoded METAR 2022/12/05 14:53 UTC NOAA

Fairbanks, Fairbanks International Airport, AK, United States (PAFA) 64-48-14N 147-52-34W 140M
Dec 05, 2022 - 09:53 AM EST / 2022.12.05 1453 UTC
Wind: from the S (190 degrees) at 3 MPH (3 KT):0
Visibility: 10 mile(s):0
Sky conditions: clear
Temperature: 3.0 F (-16.1 C)
Dew Point: -2.0 F (-18.9 C)
Relative Humidity: 78%
Pressure (altimeter): 30.05 in. Hg (1017 hPa)
Pressure tendency: 0.06 inches (2.1 hPa) higher than three hours ago
ob: PAFA 051453Z 19003KT 10SM CLR M16/M19 A3005 RMK AO2 SLP191 T11611189 51021
cycle: 15

Station Type Date Time Source
PAFA TAF 2022/12/05 14:18 UTC NOAA

TAF
AMD PAFA 051413Z 0514/0618 00000KT P6SM VCFG SCT002 SCT100 BKN200
FM051800 VRB03KT P6SM VCSH SCT002 BKN050 BKN100
FM060000 VRB03KT 4SM -SN BKN025 OVC050

Example: see airport list